Time;durP1;ratioP1;P1;durP2;ratioP2;P2;SDS_P1;SDS_P2;PMS_P1;PMS_P2;Temp;Humidity;BMP_temperature;BMP_pressure;BME280_temperature;BME280_humidity;BME280_pressure;Samples;Min_cycle;Max_cycle;Signal;HPM_P1;HPM_P2
2023/11/07 00:00:34;;;;;;;25.57;8.37;;;10.60;99.90;;;;;;7284027;19;20194;-90
2023/11/07 00:03:00;;;;;;;21.53;6.97;;;10.60;99.90;;;;;;7295301;19;20274;-90
2023/11/07 00:05:25;;;;;;;26.20;8.70;;;10.60;99.90;;;;;;7304619;19;20188;-91
2023/11/07 00:07:52;;;;;;;25.67;8.90;;;10.50;99.90;;;;;;7285034;19;20198;-90
2023/11/07 00:10:18;;;;;;;25.23;7.50;;;10.50;99.90;;;;;;7284013;19;20197;-90
2023/11/07 00:12:44;;;;;;;27.07;7.90;;;10.40;99.90;;;;;;7284133;19;20198;-90
2023/11/07 00:15:11;;;;;;;26.17;7.63;;;10.50;99.90;;;;;;7282282;19;20196;-90
2023/11/07 00:17:36;;;;;;;29.67;7.97;;;10.40;99.90;;;;;;7283439;19;20654;-90
2023/11/07 00:20:04;;;;;;;26.93;9.10;;;10.40;99.90;;;;;;7283807;19;20198;-89
2023/11/07 00:22:30;;;;;;;25.10;8.07;;;10.40;99.90;;;;;;7294001;19;20212;-90
2023/11/07 00:24:56;;;;;;;24.67;7.30;;;10.40;99.90;;;;;;7304697;19;20195;-90
2023/11/07 00:27:23;;;;;;;27.00;7.73;;;10.40;99.90;;;;;;7284820;19;20208;-90
2023/11/07 00:29:48;;;;;;;25.83;8.43;;;10.40;99.90;;;;;;7282845;19;20199;-90
2023/11/07 00:32:14;;;;;;;27.70;8.73;;;10.40;99.90;;;;;;7283176;19;20222;-90
2023/11/07 00:34:40;;;;;;;24.57;7.80;;;10.40;99.90;;;;;;7285786;19;20193;-90
2023/11/07 00:37:06;;;;;;;25.80;8.33;;;10.40;99.90;;;;;;7290315;19;20749;-90
2023/11/07 00:39:32;;;;;;;24.43;7.37;;;10.40;99.90;;;;;;7291044;19;20194;-90
2023/11/07 00:41:58;;;;;;;24.87;7.00;;;10.40;99.90;;;;;;7313466;19;20523;-89
2023/11/07 00:44:24;;;;;;;23.50;7.30;;;10.40;99.90;;;;;;7291011;19;20208;-91
2023/11/07 00:46:50;;;;;;;30.90;7.77;;;10.40;99.90;;;;;;7291561;19;20211;-90
2023/11/07 00:49:15;;;;;;;23.13;7.37;;;10.50;99.90;;;;;;7289303;19;20187;-90
2023/11/07 00:51:41;;;;;;;21.50;6.70;;;10.60;99.90;;;;;;7289369;19;20187;-90
2023/11/07 00:54:10;;;;;;;20.20;6.97;;;10.60;99.90;;;;;;7291012;19;20195;-90
2023/11/07 00:56:35;;;;;;;21.67;6.77;;;10.70;99.90;;;;;;7290711;19;20182;-90
2023/11/07 00:59:02;;;;;;;20.57;6.83;;;10.80;99.90;;;;;;7289127;19;20213;-91
2023/11/07 01:01:30;;;;;;;23.43;7.20;;;10.80;99.90;;;;;;7311957;19;20191;-91
2023/11/07 01:03:57;;;;;;;22.63;7.87;;;10.80;99.90;;;;;;7290591;19;20597;-91
2023/11/07 01:06:23;;;;;;;21.43;7.83;;;10.90;99.90;;;;;;7289612;19;20236;-90
2023/11/07 01:08:49;;;;;;;23.83;6.60;;;11.00;99.90;;;;;;7290033;19;20576;-90
2023/11/07 01:11:18;;;;;;;22.57;6.53;;;11.00;99.90;;;;;;7290570;19;20188;-91
2023/11/07 01:13:44;;;;;;;18.53;6.10;;;10.90;99.90;;;;;;7289639;19;20185;-90
2023/11/07 01:16:10;;;;;;;20.60;6.37;;;10.90;99.90;;;;;;7287366;19;20190;-91
2023/11/07 01:18:39;;;;;;;19.00;6.17;;;10.90;99.90;;;;;;7288166;19;20198;-90
2023/11/07 01:21:05;;;;;;;20.90;6.13;;;10.90;99.90;;;;;;7288849;19;20226;-91
2023/11/07 01:23:31;;;;;;;16.67;5.93;;;10.90;99.90;;;;;;7288586;19;20508;-90
2023/11/07 01:25:57;;;;;;;16.80;6.00;;;10.90;99.90;;;;;;7312004;19;20183;-90
2023/11/07 01:28:23;;;;;;;18.50;6.00;;;10.70;99.90;;;;;;7289822;19;20202;-90
2023/11/07 01:30:49;;;;;;;17.17;6.00;;;10.70;99.90;;;;;;7288769;19;21414;-90
2023/11/07 01:33:16;;;;;;;17.53;6.13;;;10.60;99.90;;;;;;7287010;19;20203;-90
2023/11/07 01:35:42;;;;;;;21.87;6.87;;;10.70;99.90;;;;;;7289507;19;20195;-90
2023/11/07 01:38:11;;;;;;;21.00;6.27;;;10.80;99.90;;;;;;7288633;19;20186;-91
2023/11/07 01:40:37;;;;;;;19.73;6.50;;;10.80;99.90;;;;;;7288215;19;20205;-90
2023/11/07 01:43:13;;;;;;;19.57;7.80;;;10.80;99.90;;;;;;7287968;19;20183;-91
2023/11/07 01:45:40;;;;;;;22.10;7.17;;;10.90;99.90;;;;;;7288703;19;20207;-90
2023/11/07 01:48:10;;;;;;;25.67;7.83;;;11.10;99.90;;;;;;7374669;19;20224;-90
2023/11/07 01:50:37;;;;;;;20.67;7.60;;;11.10;99.90;;;;;;7402838;19;20539;-90
2023/11/07 01:53:04;;;;;;;24.03;7.50;;;11.10;99.90;;;;;;7306720;19;20267;-90
2023/11/07 01:55:30;;;;;;;20.47;7.60;;;11.20;99.90;;;;;;7306136;19;20577;-90
2023/11/07 01:58:00;;;;;;;22.77;8.40;;;11.30;99.90;;;;;;7296642;19;20208;-90
2023/11/07 02:00:30;;;;;;;23.90;7.77;;;11.30;99.90;;;;;;7291831;19;20648;-90
2023/11/07 02:02:59;;;;;;;20.60;8.10;;;11.40;99.90;;;;;;7289097;19;20229;-90
2023/11/07 02:05:25;;;;;;;21.10;8.17;;;11.40;99.90;;;;;;7289222;19;20213;-90
2023/11/07 02:07:52;;;;;;;21.90;8.00;;;11.20;99.90;;;;;;7288333;19;20381;-90
2023/11/07 02:10:19;;;;;;;24.17;8.37;;;11.20;99.90;;;;;;7290410;19;20271;-90
2023/11/07 02:12:45;;;;;;;19.83;7.80;;;11.20;99.90;;;;;;7288154;19;20209;-90
2023/11/07 02:15:27;;;;;;;22.57;8.27;;;11.30;99.90;;;;;;7289484;19;20204;-90
2023/11/07 02:17:53;;;;;;;22.33;8.57;;;11.30;99.90;;;;;;7285446;19;20185;-90
2023/11/07 02:20:19;;;;;;;20.83;8.33;;;11.30;99.90;;;;;;7289634;19;20248;-89
2023/11/07 02:22:47;;;;;;;25.93;9.10;;;11.40;99.90;;;;;;7285207;19;20196;-91
2023/11/07 02:25:14;;;;;;;23.17;8.63;;;11.40;99.90;;;;;;7290333;19;20184;-90
2023/11/07 02:27:40;;;;;;;20.93;8.27;;;11.40;99.90;;;;;;7292175;19;20185;-90
2023/11/07 02:30:12;;;;;;;27.13;9.33;;;11.40;99.90;;;;;;7290155;19;20187;-90
2023/11/07 02:32:39;;;;;;;24.60;9.27;;;11.30;99.90;;;;;;7289038;19;20181;-90
2023/11/07 02:35:05;;;;;;;23.73;9.60;;;11.30;99.90;;;;;;7290808;19;20184;-90
2023/11/07 02:37:31;;;;;;;23.03;8.67;;;11.30;99.90;;;;;;7297045;19;20184;-90
2023/11/07 02:39:58;;;;;;;18.83;8.27;;;11.20;99.90;;;;;;7313675;19;20185;-89
2023/11/07 02:42:29;;;;;;;26.10;8.27;;;11.10;99.90;;;;;;7293317;19;20200;-90
2023/11/07 02:45:05;;;;;;;19.50;8.40;;;11.10;99.90;;;;;;7294836;19;20196;-90
2023/11/07 02:47:32;;;;;;;21.07;8.20;;;11.20;99.90;;;;;;7271731;19;20185;-90
2023/11/07 02:49:58;;;;;;;20.17;7.87;;;11.20;99.90;;;;;;7313090;19;20217;-90
2023/11/07 02:52:24;;;;;;;20.97;7.87;;;11.10;99.90;;;;;;7286278;19;20197;-90
2023/11/07 02:54:50;;;;;;;21.37;7.90;;;11.20;99.90;;;;;;7288196;19;20225;-90
2023/11/07 02:57:16;;;;;;;19.83;8.03;;;11.20;99.90;;;;;;7283958;19;20649;-90
2023/11/07 02:59:46;;;;;;;19.27;7.17;;;11.30;99.90;;;;;;7285569;19;20242;-89
2023/11/07 03:02:12;;;;;;;17.60;7.23;;;11.30;99.90;;;;;;7287303;19;20200;-89
2023/11/07 03:04:38;;;;;;;20.20;7.37;;;11.40;99.90;;;;;;7286597;19;20197;-90
2023/11/07 03:07:04;;;;;;;17.97;6.43;;;11.40;99.90;;;;;;7286728;19;20650;-90
2023/11/07 03:09:40;;;;;;;17.93;6.63;;;11.50;99.90;;;;;;7303454;19;20861;-90
2023/11/07 03:12:16;;;;;;;19.07;6.47;;;11.50;99.90;;;;;;7284488;19;20184;-90
2023/11/07 03:14:43;;;;;;;18.97;6.20;;;11.50;99.90;;;;;;7283734;19;20199;-90
2023/11/07 03:17:09;;;;;;;14.77;4.50;;;11.50;99.90;;;;;;7285204;19;20181;-90
2023/11/07 03:19:44;;;;;;;15.53;4.17;;;11.60;99.90;;;;;;7289741;19;20683;-91
2023/11/07 03:22:10;;;;;;;13.37;3.67;;;11.50;99.90;;;;;;7289742;19;20248;-88
2023/11/07 03:24:36;;;;;;;15.00;4.20;;;11.50;99.90;;;;;;7262745;19;20196;-89
2023/11/07 03:27:02;;;;;;;11.57;3.60;;;11.40;99.90;;;;;;7286830;19;20184;-88
2023/11/07 03:29:28;;;;;;;12.27;3.60;;;11.20;99.90;;;;;;7309019;19;20181;-89
2023/11/07 03:31:56;;;;;;;13.97;3.93;;;11.20;99.90;;;;;;7284403;19;20560;-89
2023/11/07 03:34:21;;;;;;;10.53;3.30;;;11.20;99.90;;;;;;7286727;19;20197;-89
2023/11/07 03:36:48;;;;;;;13.00;3.60;;;11.10;99.90;;;;;;7285423;19;20189;-91
2023/11/07 03:39:13;;;;;;;13.67;3.80;;;11.00;99.90;;;;;;7283862;19;20191;-89
2023/11/07 03:41:41;;;;;;;10.23;3.43;;;11.00;99.90;;;;;;7288750;19;20206;-89
2023/11/07 03:44:07;;;;;;;8.70;3.20;;;10.80;99.90;;;;;;7284451;19;20196;-89
2023/11/07 03:46:33;;;;;;;13.33;3.70;;;10.80;99.90;;;;;;7284916;19;20202;-90
2023/11/07 03:48:59;;;;;;;12.27;3.67;;;10.70;99.90;;;;;;7307709;19;20216;-90
2023/11/07 03:51:24;;;;;;;13.63;3.80;;;10.60;99.90;;;;;;7286483;19;20616;-89
2023/11/07 03:53:50;;;;;;;10.23;3.43;;;10.60;99.90;;;;;;7284861;19;20303;-89
2023/11/07 03:56:16;;;;;;;11.50;3.70;;;10.50;99.90;;;;;;7288352;19;20191;-90
2023/11/07 03:58:42;;;;;;;13.23;3.67;;;10.50;99.90;;;;;;7283246;19;20199;-89
2023/11/07 04:01:09;;;;;;;14.03;3.90;;;10.40;99.90;;;;;;7288161;19;20218;-90
2023/11/07 04:03:35;;;;;;;13.17;3.93;;;10.40;99.90;;;;;;7283878;19;20243;-89
2023/11/07 04:06:00;;;;;;;13.30;4.10;;;10.30;99.90;;;;;;7298781;19;20195;-89
2023/11/07 04:08:26;;;;;;;12.80;4.20;;;10.30;99.90;;;;;;7297787;19;20306;-89
2023/11/07 04:10:52;;;;;;;13.50;4.27;;;10.30;99.90;;;;;;7290010;19;20193;-90
2023/11/07 04:13:18;;;;;;;14.20;4.47;;;10.30;99.90;;;;;;7286714;19;20290;-90
2023/11/07 04:15:43;;;;;;;14.73;4.97;;;10.30;99.90;;;;;;7285054;19;20183;-90
2023/11/07 04:18:10;;;;;;;12.27;5.00;;;10.50;99.90;;;;;;7284586;19;20194;-91
2023/11/07 04:20:37;;;;;;;13.07;4.03;;;10.50;99.90;;;;;;7288749;19;20195;-90
2023/11/07 04:23:03;;;;;;;13.77;4.43;;;10.50;99.90;;;;;;7285233;19;20187;-90
2023/11/07 04:25:30;;;;;;;14.07;4.30;;;10.60;99.90;;;;;;7307521;19;20207;-90
2023/11/07 04:27:56;;;;;;;12.40;4.37;;;10.60;99.90;;;;;;7284631;19;20186;-89
2023/11/07 04:30:23;;;;;;;12.43;4.33;;;10.70;99.90;;;;;;7286030;19;20688;-90
2023/11/07 04:32:48;;;;;;;13.40;4.03;;;10.60;99.90;;;;;;7283596;19;20194;-90
2023/11/07 04:35:17;;;;;;;14.87;4.17;;;10.70;99.90;;;;;;7283385;19;20192;-89
2023/11/07 04:37:43;;;;;;;13.03;4.07;;;10.70;99.90;;;;;;7280458;19;20192;-90
2023/11/07 04:40:12;;;;;;;12.53;3.70;;;10.80;99.90;;;;;;7282051;19;20189;-90
2023/11/07 04:42:38;;;;;;;12.73;4.00;;;10.90;99.90;;;;;;7282981;19;20191;-89
2023/11/07 04:45:07;;;;;;;15.03;4.47;;;10.80;99.90;;;;;;7282982;19;20994;-88
2023/11/07 04:47:32;;;;;;;11.43;4.23;;;10.80;99.90;;;;;;7282251;19;20222;-87
2023/11/07 04:49:59;;;;;;;12.70;3.87;;;10.80;99.90;;;;;;7305744;19;20195;-88
2023/11/07 04:52:25;;;;;;;13.00;3.77;;;10.80;99.90;;;;;;7284504;19;20215;-89
2023/11/07 04:54:51;;;;;;;12.73;4.10;;;10.70;99.90;;;;;;7285344;19;20193;-90
2023/11/07 04:57:18;;;;;;;12.30;3.93;;;10.70;99.90;;;;;;7280595;19;20279;-91
2023/11/07 04:59:47;;;;;;;15.43;4.57;;;10.80;99.90;;;;;;7283248;19;20534;-89
2023/11/07 05:02:13;;;;;;;16.33;4.50;;;10.80;99.90;;;;;;7282881;19;20203;-90
2023/11/07 05:04:39;;;;;;;16.87;4.17;;;10.90;99.90;;;;;;7281551;19;20212;-90
2023/11/07 05:07:05;;;;;;;11.73;4.13;;;11.00;99.90;;;;;;7283512;19;20234;-90
2023/11/07 05:09:30;;;;;;;14.37;4.27;;;11.00;99.90;;;;;;7299637;19;20191;-90
2023/11/07 05:11:57;;;;;;;10.83;3.90;;;11.00;99.90;;;;;;7301070;19;20194;-89
2023/11/07 05:14:27;;;;;;;17.23;4.07;;;11.00;99.90;;;;;;7283327;19;20192;-91
2023/11/07 05:16:54;;;;;;;11.40;4.43;;;11.00;99.90;;;;;;7284050;19;20192;-91
2023/11/07 05:19:21;;;;;;;14.60;4.63;;;10.90;99.90;;;;;;7282342;19;20195;-90
2023/11/07 05:21:47;;;;;;;13.77;4.23;;;10.80;99.90;;;;;;7285553;19;20263;-90
2023/11/07 05:24:13;;;;;;;13.23;4.40;;;10.80;99.90;;;;;;7290808;19;20217;-91
2023/11/07 05:26:39;;;;;;;13.20;4.37;;;10.60;99.90;;;;;;7290598;19;20192;-90
2023/11/07 05:29:04;;;;;;;17.50;4.37;;;10.60;99.90;;;;;;7291102;19;20215;-90
2023/11/07 05:31:31;;;;;;;13.47;5.07;;;10.60;99.90;;;;;;7310627;19;20219;-90
2023/11/07 05:33:57;;;;;;;12.07;5.00;;;10.70;99.90;;;;;;7309113;19;20199;-90
2023/11/07 05:36:22;;;;;;;12.73;5.13;;;10.70;99.90;;;;;;7288840;19;20190;-90
2023/11/07 05:38:49;;;;;;;13.50;4.93;;;10.70;99.90;;;;;;7288586;19;20199;-91
2023/11/07 05:41:16;;;;;;;12.20;4.90;;;10.70;99.90;;;;;;7292315;19;20204;-91
2023/11/07 05:43:42;;;;;;;11.10;4.70;;;10.70;99.90;;;;;;7288346;19;20193;-91
2023/11/07 05:46:08;;;;;;;12.57;4.83;;;10.70;99.90;;;;;;7294817;19;20196;-91
2023/11/07 05:48:36;;;;;;;13.73;4.87;;;10.70;99.90;;;;;;7288972;19;20227;-90
2023/11/07 05:51:03;;;;;;;13.23;4.80;;;10.70;99.90;;;;;;7293981;19;20187;-90
2023/11/07 05:53:29;;;;;;;15.27;4.80;;;10.60;99.90;;;;;;7313070;19;20187;-90
2023/11/07 05:55:56;;;;;;;13.97;4.30;;;10.70;99.90;;;;;;7290858;19;20699;-90
2023/11/07 05:58:22;;;;;;;14.83;4.23;;;10.70;99.90;;;;;;7291416;19;20184;-94
2023/11/07 06:00:48;;;;;;;10.43;3.90;;;10.60;99.90;;;;;;7291053;19;20223;-91
2023/11/07 06:03:14;;;;;;;10.83;3.63;;;10.60;99.90;;;;;;7342226;19;20192;-90
2023/11/07 06:05:43;;;;;;;9.90;3.07;;;10.50;99.90;;;;;;7300400;19;20190;-92
2023/11/07 06:08:09;;;;;;;10.27;3.20;;;10.40;99.90;;;;;;7298033;19;20178;-88
2023/11/07 06:10:35;;;;;;;12.33;3.40;;;10.30;99.90;;;;;;7296773;19;20224;-91
2023/11/07 06:13:05;;;;;;;9.77;2.90;;;10.20;99.90;;;;;;7288738;19;20183;-90
2023/11/07 06:15:33;;;;;;;12.77;2.90;;;10.40;99.90;;;;;;7307001;19;20187;-90
2023/11/07 06:17:59;;;;;;;12.40;3.00;;;10.40;99.90;;;;;;7314172;19;20188;-89
2023/11/07 06:20:29;;;;;;;8.33;2.83;;;10.40;99.90;;;;;;7295523;19;20190;-90
2023/11/07 06:22:55;;;;;;;10.17;2.67;;;10.40;99.90;;;;;;7287731;19;20191;-89
2023/11/07 06:25:21;;;;;;;10.73;2.53;;;10.40;99.90;;;;;;7294049;19;20189;-90
2023/11/07 06:27:50;;;;;;;11.57;2.90;;;10.40;99.90;;;;;;7283199;19;20191;-89
2023/11/07 06:30:20;;;;;;;10.17;2.60;;;10.30;99.90;;;;;;7299926;19;20282;-89
2023/11/07 06:32:47;;;;;;;9.90;2.87;;;10.20;99.90;;;;;;7375213;19;20158;-89
2023/11/07 06:35:14;;;;;;;10.63;2.80;;;10.20;99.90;;;;;;7291322;19;20206;-89
2023/11/07 06:37:40;;;;;;;10.13;2.70;;;10.20;99.90;;;;;;7332511;19;20191;-89
2023/11/07 06:40:14;;;;;;;10.83;2.50;;;10.20;99.90;;;;;;7310513;19;20243;-89
2023/11/07 06:42:44;;;;;;;9.10;2.17;;;10.00;99.90;;;;;;7331278;19;20219;-89
2023/11/07 06:45:13;;;;;;;7.07;2.10;;;10.00;99.90;;;;;;7312407;19;20203;-88
2023/11/07 06:47:44;;;;;;;9.13;2.23;;;9.90;99.90;;;;;;7383865;19;20190;-89
2023/11/07 06:50:15;;;;;;;10.23;2.20;;;9.90;99.90;;;;;;7309038;19;20285;-89
2023/11/07 06:52:52;;;;;;;6.53;2.10;;;9.90;99.90;;;;;;7378824;19;20198;-88
2023/11/07 06:55:24;;;;;;;6.03;1.77;;;10.00;99.90;;;;;;7333564;19;20194;-89
2023/11/07 06:57:52;;;;;;;11.27;2.23;;;10.00;99.90;;;;;;7400341;19;20196;-89
2023/11/07 07:00:24;;;;;;;6.30;1.80;;;10.00;99.90;;;;;;7279829;19;20736;-89
2023/11/07 07:02:54;;;;;;;10.80;2.00;;;10.20;99.90;;;;;;7288162;19;20273;-88
2023/11/07 07:05:22;;;;;;;12.97;1.93;;;10.20;99.90;;;;;;7289518;19;20205;-88
2023/11/07 07:07:51;;;;;;;7.77;2.40;;;10.10;99.90;;;;;;7289053;19;20198;-87
2023/11/07 07:10:17;;;;;;;5.00;1.57;;;10.20;99.90;;;;;;7311514;19;20198;-88
2023/11/07 07:12:46;;;;;;;9.77;2.93;;;10.20;99.90;;;;;;7349870;19;20195;-89
2023/11/07 07:15:15;;;;;;;7.93;2.30;;;10.30;99.90;;;;;;7287166;19;20267;-88
2023/11/07 07:17:41;;;;;;;5.90;2.17;;;10.30;99.90;;;;;;7309366;19;20199;-88
2023/11/07 07:20:20;;;;;;;5.40;2.17;;;10.20;99.90;;;;;;7332994;19;20197;-89
2023/11/07 07:22:47;;;;;;;8.00;1.77;;;10.30;99.90;;;;;;7376937;19;20164;-89
2023/11/07 07:25:20;;;;;;;6.83;2.10;;;10.30;99.90;;;;;;7311962;19;20193;-89
2023/11/07 07:27:48;;;;;;;9.63;1.90;;;10.40;99.90;;;;;;7344025;19;20190;-88
2023/11/07 07:30:20;;;;;;;9.83;1.90;;;10.50;99.90;;;;;;7275816;19;20201;-89
2023/11/07 07:32:49;;;;;;;9.53;1.90;;;10.60;99.90;;;;;;7400615;19;20271;-87
2023/11/07 07:35:16;;;;;;;10.67;2.73;;;10.80;99.90;;;;;;7356036;19;20195;-87
2023/11/07 07:37:42;;;;;;;11.67;1.80;;;10.80;99.90;;;;;;7285740;19;20693;-87
2023/11/07 07:40:15;;;;;;;6.77;2.30;;;10.90;99.90;;;;;;7310294;19;20211;-90
2023/11/07 07:42:48;;;;;;;8.80;1.90;;;10.90;99.90;;;;;;7357303;19;20207;-88
2023/11/07 07:45:15;;;;;;;7.90;2.07;;;11.10;99.90;;;;;;7309221;19;20241;-89
2023/11/07 07:47:41;;;;;;;8.47;2.17;;;11.30;99.90;;;;;;7403577;19;20175;-89
2023/11/07 07:50:12;;;;;;;11.33;2.63;;;11.50;99.90;;;;;;7311599;19;20192;-89
2023/11/07 07:52:45;;;;;;;9.97;3.00;;;11.70;99.90;;;;;;7355498;19;20678;-89
2023/11/07 07:55:11;;;;;;;13.77;3.40;;;11.60;99.90;;;;;;7312625;19;20203;-89
2023/11/07 07:57:38;;;;;;;14.77;3.70;;;11.60;99.90;;;;;;7358172;19;20189;-89
2023/11/07 08:00:24;;;;;;;12.10;4.17;;;11.60;99.90;;;;;;7311128;19;20193;-91
2023/11/07 08:02:53;;;;;;;14.43;4.20;;;11.60;99.90;;;;;;7359005;19;20556;-89
2023/11/07 08:05:31;;;;;;;17.27;4.50;;;11.70;99.90;;;;;;7291758;19;20193;-90
2023/11/07 08:07:57;;;;;;;16.00;4.50;;;11.80;99.90;;;;;;7329372;19;20213;-89
2023/11/07 08:10:26;;;;;;;13.43;4.70;;;11.90;99.90;;;;;;7288737;19;20198;-89
2023/11/07 08:12:55;;;;;;;17.57;4.63;;;11.90;99.90;;;;;;7353140;19;20201;-89
2023/11/07 08:15:21;;;;;;;14.17;4.30;;;11.90;99.90;;;;;;7297233;19;20223;-89
2023/11/07 08:17:50;;;;;;;12.30;3.70;;;11.90;99.90;;;;;;7377458;19;20172;-89
2023/11/07 08:20:19;;;;;;;11.90;3.73;;;11.90;99.90;;;;;;7287819;19;20209;-89
2023/11/07 08:22:47;;;;;;;9.07;2.70;;;12.20;99.90;;;;;;7353941;19;20259;-89
2023/11/07 08:25:21;;;;;;;8.83;2.40;;;12.20;99.90;;;;;;7293856;19;20199;-88
2023/11/07 08:27:49;;;;;;;9.80;2.37;;;12.20;99.90;;;;;;7393358;19;20157;-88
2023/11/07 08:30:20;;;;;;;9.13;2.07;;;11.90;99.90;;;;;;7276323;19;20196;-87
2023/11/07 08:32:46;;;;;;;6.83;2.20;;;11.80;99.90;;;;;;7352400;19;20185;-88
2023/11/07 08:35:15;;;;;;;9.67;2.70;;;11.90;99.90;;;;;;7283511;19;20189;-88
2023/11/07 08:37:49;;;;;;;7.87;1.93;;;11.80;99.90;;;;;;7331323;19;20185;-89
2023/11/07 08:40:21;;;;;;;8.63;2.77;;;11.80;99.90;;;;;;7306562;19;20199;-89
2023/11/07 08:42:48;;;;;;;9.53;2.37;;;11.80;99.90;;;;;;7396779;19;20201;-90
2023/11/07 08:45:21;;;;;;;11.23;2.97;;;11.60;99.90;;;;;;7285612;19;20299;-89
2023/11/07 08:47:53;;;;;;;7.33;2.60;;;11.60;99.90;;;;;;7355317;19;20674;-88
2023/11/07 08:50:23;;;;;;;10.60;2.90;;;11.70;99.90;;;;;;7306579;19;20203;-89
2023/11/07 08:52:49;;;;;;;10.37;3.10;;;11.70;99.90;;;;;;7353754;19;20576;-89
2023/11/07 08:55:25;;;;;;;17.30;8.20;;;11.80;99.90;;;;;;7310208;19;20672;-88
2023/11/07 08:57:51;;;;;;;9.33;2.97;;;11.80;99.90;;;;;;7358028;19;20241;-88
2023/11/07 09:00:26;;;;;;;7.93;2.20;;;11.80;99.90;;;;;;7288720;19;20259;-88
2023/11/07 09:02:53;;;;;;;7.80;2.40;;;11.70;99.90;;;;;;7295815;19;20181;-87
2023/11/07 09:05:20;;;;;;;7.40;2.63;;;11.70;99.90;;;;;;7293883;19;20195;-90
2023/11/07 09:07:47;;;;;;;7.83;3.60;;;11.60;99.90;;;;;;7360542;19;20214;-88
2023/11/07 09:10:16;;;;;;;8.80;2.97;;;11.60;99.90;;;;;;7314402;19;20185;-88
2023/11/07 09:12:45;;;;;;;6.70;2.57;;;11.60;99.90;;;;;;7338420;19;20196;-89
2023/11/07 09:15:12;;;;;;;11.97;4.30;;;11.80;99.90;;;;;;7300906;19;20204;-89
2023/11/07 09:17:42;;;;;;;7.73;2.27;;;11.70;99.90;;;;;;7314404;19;20230;-89
2023/11/07 09:20:13;;;;;;;8.33;3.17;;;11.70;99.90;;;;;;7312186;19;20191;-88
2023/11/07 09:22:43;;;;;;;7.57;2.90;;;11.70;99.90;;;;;;7293107;19;20181;-89
2023/11/07 09:25:17;;;;;;;8.47;3.87;;;11.90;99.90;;;;;;7314093;19;20205;-89
2023/11/07 09:27:44;;;;;;;6.40;1.93;;;12.00;99.90;;;;;;7343560;19;20197;-88
2023/11/07 09:30:11;;;;;;;6.10;1.90;;;12.30;99.90;;;;;;7315157;19;20194;-88
2023/11/07 09:32:38;;;;;;;5.50;1.90;;;12.60;99.90;;;;;;7323772;19;20225;-88
2023/11/07 09:35:08;;;;;;;8.67;1.90;;;12.50;99.90;;;;;;7315645;19;20197;-90
2023/11/07 09:37:39;;;;;;;7.83;2.20;;;12.60;99.90;;;;;;7361061;19;20245;-89
2023/11/07 09:40:12;;;;;;;5.10;1.70;;;12.20;99.90;;;;;;7301398;19;20220;-89
2023/11/07 09:42:44;;;;;;;5.00;1.60;;;12.40;99.90;;;;;;7403511;19;20817;-89
2023/11/07 09:45:21;;;;;;;6.23;1.90;;;12.70;99.90;;;;;;7292843;19;20209;-89
2023/11/07 09:47:48;;;;;;;6.40;2.10;;;12.90;99.90;;;;;;7291691;19;20184;-88
2023/11/07 09:50:20;;;;;;;5.07;1.60;;;12.90;99.90;;;;;;7286906;19;20182;-89
2023/11/07 09:52:50;;;;;;;4.77;1.70;;;13.20;99.90;;;;;;7286740;19;20261;-89
2023/11/07 09:55:17;;;;;;;10.83;4.13;;;13.60;99.90;;;;;;7287998;19;20197;-89
2023/11/07 09:57:53;;;;;;;10.13;5.30;;;13.70;99.90;;;;;;7286025;19;20215;-90
2023/11/07 10:00:22;;;;;;;15.23;8.40;;;13.90;99.90;;;;;;7286596;19;20186;-87
2023/11/07 10:02:52;;;;;;;10.90;2.57;;;14.10;99.90;;;;;;7287352;19;20198;-88
2023/11/07 10:05:20;;;;;;;8.50;3.20;;;14.20;99.90;;;;;;7285745;19;20249;-88
2023/11/07 10:07:50;;;;;;;12.50;5.57;;;14.20;99.90;;;;;;7285217;19;20199;-87
2023/11/07 10:10:16;;;;;;;25.13;15.77;;;14.20;99.90;;;;;;7286034;19;20710;-88
2023/11/07 10:12:45;;;;;;;11.57;4.20;;;14.40;99.90;;;;;;7284826;19;20290;-88
2023/11/07 10:15:29;;;;;;;6.40;2.90;;;14.30;99.90;;;;;;7284752;19;20684;-88
2023/11/07 10:18:06;;;;;;;12.03;2.77;;;14.10;99.90;;;;;;7285332;19;20191;-88
2023/11/07 10:20:34;;;;;;;8.27;2.30;;;13.70;99.90;;;;;;7277664;19;20245;-88
2023/11/07 10:23:00;;;;;;;6.13;1.70;;;13.80;99.90;;;;;;7308813;19;20219;-87
2023/11/07 10:25:28;;;;;;;12.10;8.63;;;13.80;99.90;;;;;;7284908;19;20187;-88
2023/11/07 10:28:06;;;;;;;5.70;2.50;;;13.90;99.90;;;;;;7285324;19;20190;-88
2023/11/07 10:30:41;;;;;;;6.17;1.40;;;14.00;99.90;;;;;;7283361;19;20703;-88
2023/11/07 10:33:32;;;;;;;7.67;1.60;;;14.00;99.90;;;;;;7283337;19;20193;-88
2023/11/07 10:36:01;;;;;;;5.33;1.23;;;14.10;99.90;;;;;;7285193;19;20225;-88
2023/11/07 10:38:31;;;;;;;5.37;1.40;;;13.80;99.90;;;;;;7283286;19;20634;-88
2023/11/07 10:40:57;;;;;;;8.57;1.70;;;13.70;99.90;;;;;;7284661;19;20216;-88
2023/11/07 10:43:39;;;;;;;3.30;1.17;;;13.60;99.90;;;;;;7282178;19;21090;-89
2023/11/07 10:46:10;;;;;;;5.50;1.23;;;13.60;99.90;;;;;;7262861;19;20197;-88
2023/11/07 10:48:38;;;;;;;7.50;1.33;;;13.60;99.90;;;;;;7283639;19;20657;-88
2023/11/07 10:51:05;;;;;;;4.70;1.37;;;13.60;99.90;;;;;;7283136;19;20185;-88
2023/11/07 10:53:38;;;;;;;7.93;1.60;;;13.70;99.90;;;;;;7305281;19;20197;-88
2023/11/07 10:56:17;;;;;;;4.97;1.20;;;13.80;99.90;;;;;;7261764;19;20183;-88
2023/11/07 10:59:20;;;;;;;6.47;1.10;;;13.70;99.90;;;;;;7282502;19;20195;-88
2023/11/07 11:01:50;;;;;;;6.43;1.00;;;13.90;99.90;;;;;;7185533;19;2004429;-88
2023/11/07 11:04:21;;;;;;;5.40;1.00;;;14.60;99.90;;;;;;7282877;19;20195;-88
2023/11/07 11:07:02;;;;;;;7.77;1.40;;;14.90;99.90;;;;;;7284632;19;20280;-89
2023/11/07 11:09:28;;;;;;;7.63;1.20;;;14.80;99.90;;;;;;7284660;19;20194;-89
2023/11/07 11:11:58;;;;;;;7.80;1.30;;;15.10;99.90;;;;;;7278972;19;20228;-89
2023/11/07 11:14:25;;;;;;;3.97;1.10;;;15.10;99.90;;;;;;7284563;19;20213;-89
2023/11/07 11:16:57;;;;;;;6.77;1.20;;;15.00;99.90;;;;;;7282240;19;20217;-89
2023/11/07 11:19:42;;;;;;;4.87;1.30;;;15.40;99.90;;;;;;7280650;19;20236;-88
2023/11/07 11:22:33;;;;;;;3.57;1.20;;;15.90;99.90;;;;;;7179732;19;2004614;-89
2023/11/07 11:25:17;;;;;;;4.80;1.20;;;16.10;99.90;;;;;;7282602;19;20185;-89
2023/11/07 11:27:51;;;;;;;6.63;1.30;;;16.00;99.90;;;;;;7181238;19;2004582;-88
2023/11/07 11:30:17;;;;;;;4.87;1.13;;;16.10;99.90;;;;;;7281770;19;20200;-89
2023/11/07 11:32:44;;;;;;;4.00;0.97;;;16.00;99.90;;;;;;7282542;19;20178;-89
2023/11/07 11:35:19;;;;;;;1.60;0.87;;;15.70;99.90;;;;;;7282800;19;20796;-88
2023/11/07 11:38:13;;;;;;;4.00;1.00;;;15.60;99.90;;;;;;7281283;19;20192;-88
2023/11/07 11:40:59;;;;;;;4.87;1.60;;;15.20;99.90;;;;;;7179595;19;2004539;-89
2023/11/07 11:43:33;;;;;;;4.50;1.30;;;14.90;99.90;;;;;;7282019;19;20194;-88
2023/11/07 11:46:20;;;;;;;5.73;1.50;;;14.70;99.90;;;;;;7283401;19;20241;-88
2023/11/07 11:48:52;;;;;;;3.07;1.50;;;14.50;99.90;;;;;;7179997;19;2004600;-89
2023/11/07 11:51:41;;;;;;;3.93;1.00;;;14.70;99.90;;;;;;7281856;19;20197;-89
2023/11/07 11:54:09;;;;;;;3.10;1.10;;;14.80;99.90;;;;;;7181267;19;2004639;-89
2023/11/07 11:56:58;;;;;;;2.17;1.03;;;15.50;99.90;;;;;;7280722;19;20294;-89
2023/11/07 11:59:59;;;;;;;3.43;0.90;;;16.20;99.90;;;;;;7281051;19;20747;-89
2023/11/07 12:02:41;;;;;;;5.37;1.00;;;16.50;99.90;;;;;;7180086;19;2004380;-89
2023/11/07 12:05:17;;;;;;;3.67;1.20;;;16.60;99.90;;;;;;7178139;19;2004443;-89
2023/11/07 12:07:44;;;;;;;2.33;1.20;;;16.70;99.90;;;;;;7282372;19;20194;-89
2023/11/07 12:10:13;;;;;;;3.80;1.50;;;16.50;99.90;;;;;;7281105;19;20736;-89
2023/11/07 12:12:39;;;;;;;2.53;1.00;;;16.80;99.90;;;;;;7281126;19;20194;-89
2023/11/07 12:15:06;;;;;;;3.30;1.40;;;16.80;99.90;;;;;;7280373;19;20206;-89
2023/11/07 12:17:43;;;;;;;3.53;1.40;;;16.60;99.90;;;;;;7292588;19;20198;-89
2023/11/07 12:20:11;;;;;;;4.87;1.50;;;16.50;99.90;;;;;;7281081;19;20189;-89
2023/11/07 12:22:43;;;;;;;4.93;1.53;;;16.40;99.90;;;;;;7281165;19;20248;-88
2023/11/07 12:25:17;;;;;;;5.10;1.47;;;16.40;99.90;;;;;;7280310;19;20189;-89
2023/11/07 12:28:03;;;;;;;4.97;1.77;;;16.10;99.90;;;;;;7278963;19;20185;-88
2023/11/07 12:30:33;;;;;;;7.33;1.60;;;16.10;99.90;;;;;;7282039;19;20230;-88
2023/11/07 12:33:08;;;;;;;3.70;1.50;;;16.00;99.90;;;;;;7288860;19;20192;-88
2023/11/07 12:35:35;;;;;;;4.10;1.30;;;15.80;99.90;;;;;;7266224;19;20192;-89
2023/11/07 12:38:09;;;;;;;2.50;1.10;;;15.50;99.90;;;;;;7308245;19;20279;-88
2023/11/07 12:40:36;;;;;;;4.83;2.20;;;15.30;99.90;;;;;;7267855;19;20195;-89
2023/11/07 12:43:07;;;;;;;4.80;1.60;;;15.30;99.90;;;;;;7302089;19;20203;-89
2023/11/07 12:45:38;;;;;;;6.60;2.43;;;15.40;99.90;;;;;;7297019;19;20253;-89
2023/11/07 12:48:13;;;;;;;5.30;1.10;;;15.50;99.90;;;;;;7288126;19;20181;-88
2023/11/07 12:50:46;;;;;;;3.00;1.43;;;15.50;99.90;;;;;;7286767;19;20535;-88